createdAt,value
2022-10-18T00:01:06.309Z,88.53
2022-10-18T00:03:40.711Z,88.60
2022-10-18T00:06:09.793Z,88.78
2022-10-18T00:08:39.191Z,88.66
2022-10-18T00:11:08.043Z,88.59
2022-10-18T00:13:36.944Z,88.49
2022-10-18T00:16:10.315Z,88.34
2022-10-18T00:18:38.923Z,88.57
2022-10-18T00:21:11.423Z,88.83
2022-10-18T00:23:39.793Z,89.00
2022-10-18T00:26:17.639Z,89.36
2022-10-18T00:28:47.633Z,89.44
2022-10-18T00:31:23.902Z,89.38
2022-10-18T00:33:55.069Z,89.41
2022-10-18T00:36:23.670Z,89.30
2022-10-18T00:38:52.514Z,89.64
2022-10-18T00:41:28.135Z,89.64
2022-10-18T00:44:06.055Z,89.68
2022-10-18T00:46:39.575Z,90.01
2022-10-18T00:49:33.462Z,89.96
2022-10-18T00:52:06.753Z,90.53
2022-10-18T00:54:37.664Z,91.28
2022-10-18T00:57:06.525Z,91.94
2022-10-18T00:59:35.842Z,91.75
2022-10-18T01:02:05.190Z,91.50
2022-10-18T01:04:34.213Z,91.33
2022-10-18T01:07:25.363Z,91.43
2022-10-18T01:09:59.650Z,91.15
2022-10-18T01:12:50.118Z,90.72
2022-10-18T01:15:30.084Z,90.73
2022-10-18T01:18:13.504Z,90.89
2022-10-18T01:20:53.834Z,91.15
2022-10-18T01:23:25.045Z,91.02
2022-10-18T01:26:12.165Z,90.90
2022-10-18T01:28:52.354Z,90.79
2022-10-18T01:31:23.521Z,90.58
2022-10-18T01:33:53.541Z,90.40
2022-10-18T01:36:34.970Z,90.39
2022-10-18T01:39:07.860Z,90.36
2022-10-18T01:41:39.923Z,90.67
2022-10-18T01:44:11.725Z,90.71
2022-10-18T01:46:41.520Z,90.78
2022-10-18T01:49:09.580Z,90.83
2022-10-18T01:51:37.532Z,90.83
2022-10-18T01:54:05.822Z,90.80
2022-10-18T01:56:55.077Z,90.96
2022-10-18T01:59:55.488Z,90.94
2022-10-18T02:02:34.134Z,91.80
2022-10-18T02:05:22.798Z,91.92
2022-10-18T02:08:12.699Z,91.82
2022-10-18T02:10:56.259Z,91.87
2022-10-18T02:13:29.869Z,92.32
2022-10-18T02:16:04.978Z,92.86
2022-10-18T02:18:41.658Z,92.89
2022-10-18T02:21:13.699Z,92.83
2022-10-18T02:23:45.113Z,92.76
2022-10-18T02:26:17.397Z,92.50
2022-10-18T02:28:46.643Z,92.19
2022-10-18T02:31:39.865Z,92.04
2022-10-18T02:34:28.277Z,92.08
2022-10-18T02:37:00.691Z,91.90
2022-10-18T02:39:32.882Z,91.74
2022-10-18T02:42:01.193Z,91.64
2022-10-18T02:44:29.138Z,91.73
2022-10-18T02:46:57.271Z,91.71
2022-10-18T02:49:25.558Z,91.69
2022-10-18T02:51:53.581Z,91.76
2022-10-18T02:54:21.747Z,91.67
2022-10-18T02:56:50.158Z,91.71
2022-10-18T02:59:18.515Z,92.12
2022-10-18T03:01:49.202Z,92.23
2022-10-18T03:04:17.650Z,92.17
2022-10-18T03:06:45.698Z,92.23
2022-10-18T03:09:13.698Z,92.08
2022-10-18T03:11:41.720Z,91.91
2022-10-18T03:14:09.767Z,91.81
2022-10-18T03:16:37.782Z,91.88
2022-10-18T03:19:05.854Z,92.15
2022-10-18T03:21:33.971Z,92.12
2022-10-18T03:24:02.503Z,91.95
2022-10-18T03:26:30.654Z,91.79
2022-10-18T03:28:58.749Z,92.16
2022-10-18T03:31:26.934Z,92.22
2022-10-18T03:33:54.971Z,92.23
2022-10-18T03:36:23.054Z,92.21
2022-10-18T03:38:51.228Z,92.20
2022-10-18T03:41:20.792Z,92.32
2022-10-18T03:43:49.059Z,92.22
2022-10-18T03:46:17.155Z,92.21
2022-10-18T03:48:45.129Z,92.11
2022-10-18T03:51:13.209Z,92.03
2022-10-18T03:53:41.423Z,92.42
2022-10-18T03:56:09.632Z,92.70
2022-10-18T03:58:37.924Z,92.50
2022-10-18T04:01:06.088Z,92.65
2022-10-18T04:03:34.425Z,92.73
2022-10-18T04:06:03.820Z,92.54
2022-10-18T04:08:32.456Z,92.33
2022-10-18T04:11:05.497Z,92.09
2022-10-18T04:13:33.446Z,91.93
2022-10-18T04:16:01.660Z,91.87
2022-10-18T04:18:29.717Z,91.76
2022-10-18T04:20:57.994Z,91.99
2022-10-18T04:23:26.093Z,92.41
2022-10-18T04:25:54.278Z,92.47
2022-10-18T04:28:22.352Z,92.60
2022-10-18T04:30:53.351Z,92.49
2022-10-18T04:33:21.625Z,92.75
2022-10-18T04:35:52.717Z,93.12
2022-10-18T04:38:20.841Z,93.43
2022-10-18T04:40:50.052Z,93.55
2022-10-18T04:43:18.112Z,93.54
2022-10-18T04:45:48.168Z,93.63
2022-10-18T04:48:17.082Z,93.66
2022-10-18T04:50:49.240Z,93.81
2022-10-18T04:53:18.425Z,94.28
2022-10-18T04:55:49.952Z,94.58
2022-10-18T04:58:20.408Z,94.63
2022-10-18T05:00:51.208Z,94.90
2022-10-18T05:03:19.275Z,95.14
2022-10-18T05:06:01.300Z,95.13
2022-10-18T05:08:31.829Z,94.71
2022-10-18T05:11:00.673Z,94.57
2022-10-18T05:13:29.432Z,94.58
2022-10-18T05:15:59.490Z,94.56
2022-10-18T05:18:27.760Z,94.47
2022-10-18T05:20:56.219Z,94.50
2022-10-18T05:23:24.834Z,94.43
2022-10-18T05:25:52.959Z,94.89
2022-10-18T05:28:41.118Z,95.05
2022-10-18T05:31:11.977Z,95.25
2022-10-18T05:33:40.424Z,95.33
2022-10-18T05:36:09.173Z,95.24
2022-10-18T05:38:45.629Z,95.15
2022-10-18T05:41:14.637Z,95.06
2022-10-18T05:43:42.820Z,95.13
2022-10-18T05:46:15.327Z,94.91
2022-10-18T05:48:44.727Z,94.51
2022-10-18T05:51:12.701Z,94.27
2022-10-18T05:53:40.667Z,94.04
2022-10-18T05:56:09.019Z,93.70
2022-10-18T05:58:37.828Z,93.30
2022-10-18T06:01:06.761Z,92.35
2022-10-18T06:03:35.277Z,91.38
2022-10-18T06:06:09.704Z,91.13
2022-10-18T06:08:39.882Z,90.70
2022-10-18T06:11:14.825Z,89.87
2022-10-18T06:13:44.992Z,89.88
2022-10-18T06:16:15.880Z,89.42
2022-10-18T06:18:47.443Z,88.31
2022-10-18T06:21:16.034Z,86.48
2022-10-18T06:23:48.089Z,86.54
2022-10-18T06:26:16.473Z,86.68
2022-10-18T06:28:44.817Z,86.26
2022-10-18T06:31:13.993Z,85.50
2022-10-18T06:33:42.277Z,85.14
2022-10-18T06:36:17.072Z,84.04
2022-10-18T06:38:45.411Z,83.38
2022-10-18T06:41:13.515Z,82.89
2022-10-18T06:43:41.517Z,82.41
2022-10-18T06:46:09.555Z,82.05
2022-10-18T06:48:39.306Z,81.10
2022-10-18T06:51:08.454Z,80.29
2022-10-18T06:53:43.941Z,78.55
2022-10-18T06:56:21.473Z,77.97
2022-10-18T06:58:49.661Z,76.70
2022-10-18T07:01:18.984Z,76.48
2022-10-18T07:03:49.174Z,76.48
2022-10-18T07:06:19.112Z,75.55
2022-10-18T07:08:52.580Z,74.01
2022-10-18T07:11:26.384Z,72.31
2022-10-18T07:14:06.951Z,70.82
2022-10-18T07:16:36.281Z,71.36
2022-10-18T07:19:04.477Z,70.99
2022-10-18T07:21:32.511Z,70.51
2022-10-18T07:24:00.556Z,69.25
2022-10-18T07:26:31.438Z,68.90
2022-10-18T07:29:09.683Z,67.72
2022-10-18T07:31:39.274Z,66.67
2022-10-18T07:34:10.773Z,66.92
2022-10-18T07:36:44.481Z,66.53
2022-10-18T07:39:12.507Z,66.16
2022-10-18T07:41:40.684Z,65.42
2022-10-18T07:44:09.898Z,65.25
2022-10-18T07:46:38.057Z,65.96
2022-10-18T07:49:06.312Z,64.68
2022-10-18T07:51:36.209Z,64.64
2022-10-18T07:54:04.413Z,63.84
2022-10-18T07:56:32.324Z,62.85
2022-10-18T07:59:00.398Z,61.93
2022-10-18T08:01:28.761Z,61.42
2022-10-18T08:03:56.928Z,62.00
2022-10-18T08:06:25.052Z,61.11
2022-10-18T08:08:53.174Z,59.98
2022-10-18T08:11:23.646Z,59.63
2022-10-18T08:13:53.865Z,59.72
2022-10-18T08:16:38.284Z,60.29
2022-10-18T08:19:08.797Z,59.73
2022-10-18T08:21:37.034Z,59.12
2022-10-18T08:24:05.847Z,58.86
2022-10-18T08:26:33.930Z,58.28
2022-10-18T08:31:51.028Z,59.11
2022-10-18T08:34:19.980Z,59.22
2022-10-18T08:36:48.260Z,58.56
2022-10-18T08:39:16.676Z,59.26
2022-10-18T08:42:06.789Z,58.85
2022-10-18T08:44:48.667Z,58.65
2022-10-18T08:47:19.253Z,58.03
2022-10-18T08:49:47.553Z,58.24
2022-10-18T08:52:22.858Z,58.52
2022-10-18T08:55:09.367Z,58.40
2022-10-18T08:57:51.708Z,58.70
2022-10-18T09:00:41.008Z,57.95
2022-10-18T09:03:22.076Z,55.91
2022-10-18T09:06:31.810Z,56.25
2022-10-18T09:09:20.660Z,55.68
2022-10-18T09:12:10.951Z,55.30
2022-10-18T09:15:16.043Z,55.30
2022-10-18T09:18:35.737Z,54.93
2022-10-18T09:21:23.786Z,54.14
2022-10-18T09:24:12.451Z,54.39
2022-10-18T09:27:08.777Z,55.12
2022-10-18T09:29:51.376Z,53.91
2022-10-18T09:32:35.082Z,53.35
2022-10-18T09:35:21.395Z,53.92
2022-10-18T09:37:56.175Z,53.69
2022-10-18T09:40:31.130Z,52.49
2022-10-18T09:43:17.183Z,51.99
2022-10-18T09:45:49.070Z,51.87
2022-10-18T09:48:32.159Z,51.30
2022-10-18T09:51:19.058Z,51.41
2022-10-18T09:54:11.901Z,51.12
2022-10-18T09:56:52.689Z,50.17
2022-10-18T09:59:42.897Z,50.32
2022-10-18T10:02:16.577Z,49.81
2022-10-18T10:04:45.619Z,49.82
2022-10-18T10:07:24.782Z,49.63
2022-10-18T10:10:12.887Z,48.84
2022-10-18T10:12:41.616Z,48.13
2022-10-18T10:15:28.240Z,48.16
2022-10-18T10:18:23.269Z,47.96
2022-10-18T10:20:57.614Z,47.22
2022-10-18T10:23:40.612Z,47.25
2022-10-18T10:26:24.427Z,46.62
2022-10-18T10:28:59.117Z,47.01
2022-10-18T10:31:45.299Z,47.16
2022-10-18T10:34:18.102Z,46.28
2022-10-18T10:36:53.197Z,46.02
2022-10-18T10:39:27.212Z,45.00
2022-10-18T10:42:00.615Z,45.69
2022-10-18T10:44:36.323Z,44.44
2022-10-18T10:47:08.342Z,42.91
2022-10-18T10:49:46.239Z,43.55
2022-10-18T10:52:28.430Z,43.60
2022-10-18T10:55:11.067Z,42.84
2022-10-18T10:57:50.954Z,42.61
2022-10-18T11:00:44.622Z,41.16
2022-10-18T11:03:34.323Z,41.18
2022-10-18T11:06:02.956Z,41.44
2022-10-18T11:08:41.443Z,40.61
2022-10-18T11:11:20.723Z,40.05
2022-10-18T11:14:24.566Z,39.65
2022-10-18T11:17:02.053Z,39.63
2022-10-18T11:19:42.973Z,39.63
2022-10-18T11:22:17.630Z,39.33
2022-10-18T11:24:45.923Z,38.62
2022-10-18T11:27:20.535Z,38.27
2022-10-18T11:33:56.723Z,38.29
2022-10-18T11:36:49.339Z,37.41
2022-10-18T11:39:34.146Z,37.13
2022-10-18T11:42:27.700Z,36.73
2022-10-18T11:45:11.131Z,35.85
2022-10-18T11:48:00.126Z,36.15
2022-10-18T11:50:38.348Z,37.14
2022-10-18T11:53:30.884Z,36.69
2022-10-18T11:56:44.823Z,36.09
2022-10-18T11:59:36.125Z,36.04
2022-10-18T12:02:40.811Z,35.22
2022-10-18T12:05:30.043Z,35.22
2022-10-18T12:08:05.980Z,35.55
2022-10-18T12:10:52.688Z,34.73
2022-10-18T12:13:49.559Z,34.91
2022-10-18T12:16:38.883Z,34.96
2022-10-18T12:19:23.366Z,35.27
2022-10-18T12:22:08.950Z,34.90
2022-10-18T12:24:37.573Z,35.31
2022-10-18T12:27:05.902Z,34.34
2022-10-18T12:29:40.123Z,34.47
2022-10-18T12:32:16.273Z,34.56
2022-10-18T12:34:57.514Z,34.21
2022-10-18T12:37:32.200Z,34.47
2022-10-18T12:40:15.704Z,33.87
2022-10-18T12:42:49.152Z,33.92
2022-10-18T12:45:24.343Z,33.92
2022-10-18T12:47:53.430Z,34.92
2022-10-18T12:50:30.460Z,34.60
2022-10-18T12:53:09.904Z,34.94
2022-10-18T12:55:51.806Z,34.99
2022-10-18T12:58:25.242Z,34.52
2022-10-18T13:00:57.412Z,34.52
2022-10-18T13:03:25.754Z,34.43
2022-10-18T13:06:00.741Z,33.94
2022-10-18T13:08:35.314Z,34.25
2022-10-18T13:11:09.225Z,34.34
2022-10-18T13:13:40.607Z,34.18
2022-10-18T13:16:20.809Z,34.26
2022-10-18T13:19:10.331Z,34.46
2022-10-18T13:22:08.872Z,34.02
2022-10-18T13:24:47.439Z,34.32
2022-10-18T13:27:52.961Z,34.51
2022-10-18T13:30:47.222Z,34.31
2022-10-18T13:33:17.984Z,34.90
2022-10-18T13:35:58.429Z,34.66
2022-10-18T13:38:38.602Z,35.00
2022-10-18T13:41:15.754Z,35.15
2022-10-18T13:43:53.122Z,35.35
2022-10-18T13:46:44.491Z,35.55
2022-10-18T13:49:39.930Z,35.61
2022-10-18T13:52:11.221Z,35.35
2022-10-18T13:54:54.500Z,35.82
2022-10-18T13:57:47.325Z,36.28
2022-10-18T14:00:53.689Z,36.37
2022-10-18T14:06:28.504Z,36.92
2022-10-18T14:12:41.727Z,37.89
2022-10-18T14:15:31.655Z,38.06
2022-10-18T14:18:20.540Z,38.48
2022-10-18T14:21:12.852Z,38.17
2022-10-18T14:23:44.867Z,38.20
2022-10-18T14:26:18.526Z,38.27
2022-10-18T14:29:03.389Z,38.54
2022-10-18T14:31:31.452Z,39.00
2022-10-18T14:34:01.111Z,39.07
2022-10-18T14:36:42.426Z,39.29
2022-10-18T14:39:38.782Z,39.35
2022-10-18T14:42:36.417Z,39.88
2022-10-18T14:45:19.553Z,40.39
2022-10-18T14:47:48.230Z,40.65
2022-10-18T14:50:30.422Z,41.06
2022-10-18T14:53:05.470Z,41.54
2022-10-18T14:55:34.077Z,41.93
2022-10-18T14:58:14.968Z,42.36
2022-10-18T15:00:45.164Z,42.67
2022-10-18T15:03:18.074Z,43.23
2022-10-18T15:06:01.529Z,43.58
2022-10-18T15:08:53.313Z,44.00
2022-10-18T15:11:22.060Z,44.57
2022-10-18T15:13:54.140Z,45.04
2022-10-18T15:16:28.880Z,45.41
2022-10-18T15:19:06.982Z,45.80
2022-10-18T15:21:36.600Z,46.23
2022-10-18T15:24:28.711Z,46.38
2022-10-18T15:27:01.940Z,46.99
2022-10-18T15:29:33.592Z,47.48
2022-10-18T15:32:14.066Z,47.76
2022-10-18T15:34:42.089Z,48.21
2022-10-18T15:37:23.839Z,48.89
2022-10-18T15:40:23.566Z,49.28
2022-10-18T15:42:55.426Z,50.82
2022-10-18T15:45:33.087Z,51.99
2022-10-18T15:48:01.826Z,52.61
2022-10-18T15:50:51.430Z,53.74
2022-10-18T15:53:24.113Z,54.32
2022-10-18T15:55:55.374Z,55.90
2022-10-18T15:58:26.913Z,56.50
2022-10-18T16:00:59.248Z,57.65
2022-10-18T16:03:28.854Z,58.99
2022-10-18T16:06:02.833Z,59.34
2022-10-18T16:08:32.435Z,59.78
2022-10-18T16:11:00.725Z,61.32
2022-10-18T16:13:29.083Z,62.61
2022-10-18T16:15:57.328Z,63.17
2022-10-18T16:18:26.576Z,63.96
2022-10-18T16:20:54.505Z,64.37
2022-10-18T16:23:28.703Z,64.70
2022-10-18T16:25:57.443Z,64.96
2022-10-18T16:28:26.286Z,65.34
2022-10-18T16:30:54.277Z,65.65
2022-10-18T16:33:22.444Z,65.33
2022-10-18T16:35:50.657Z,65.57
2022-10-18T16:38:35.176Z,65.95
2022-10-18T16:41:08.067Z,66.31
2022-10-18T16:43:38.605Z,66.67
2022-10-18T16:46:18.827Z,66.65
2022-10-18T16:48:51.081Z,66.79
2022-10-18T16:51:22.674Z,67.45
2022-10-18T16:53:55.672Z,68.32
2022-10-18T16:56:31.314Z,68.45
2022-10-18T16:59:02.184Z,68.41
2022-10-18T17:01:32.331Z,68.67
2022-10-18T17:04:07.639Z,69.09
2022-10-18T17:06:53.649Z,69.20
2022-10-18T17:09:36.736Z,69.43
2022-10-18T17:12:09.234Z,70.00
2022-10-18T17:14:52.331Z,70.39
2022-10-18T17:17:29.073Z,70.99
2022-10-18T17:19:57.819Z,71.38
2022-10-18T17:22:45.081Z,71.67
2022-10-18T17:29:16.152Z,72.71
2022-10-18T17:32:55.462Z,73.00
2022-10-18T17:39:45.764Z,73.80
2022-10-18T17:43:10.717Z,74.10
2022-10-18T17:57:19.621Z,76.18
2022-10-18T18:00:18.678Z,77.46
2022-10-18T18:37:11.871Z,80.75
2022-10-18T19:04:05.858Z,81.66
2022-10-18T19:13:32.709Z,82.11
2022-10-18T19:23:05.370Z,84.48
2022-10-18T21:27:17.533Z,91.13
2022-10-18T21:34:46.538Z,90.09
2022-10-18T22:07:51.709Z,95.19
2022-10-18T22:16:02.356Z,94.08
2022-10-18T22:19:14.382Z,93.45
2022-10-18T22:27:46.861Z,93.88
2022-10-18T22:31:32.008Z,93.97
2022-10-18T22:34:56.744Z,94.61
2022-10-18T22:37:56.790Z,94.90
2022-10-18T22:41:16.682Z,95.05
2022-10-18T22:44:21.155Z,94.59
2022-10-18T22:50:57.392Z,94.14
2022-10-18T22:57:47.286Z,93.50
2022-10-18T23:04:12.751Z,92.91
2022-10-18T23:07:10.937Z,92.61
2022-10-18T23:10:09.461Z,92.56
2022-10-18T23:16:58.494Z,92.66
2022-10-18T23:21:00.073Z,92.71
2022-10-18T23:30:57.834Z,93.79
2022-10-18T23:34:37.398Z,94.33
2022-10-18T23:37:51.894Z,94.33
2022-10-18T23:40:35.681Z,94.48
2022-10-18T23:43:37.757Z,94.24
2022-10-18T23:46:40.367Z,94.12
2022-10-18T23:52:29.696Z,94.13
2022-10-18T23:55:19.853Z,94.27
2022-10-18T23:58:12.522Z,94.16
